DALH weather

Dalhousie Airport
South Australia, Australia

Public forecast

Using degrees Celsius for public forecast. Weather courtesy of forecast.io.

METAR (pilot weather report)

Closest report is Birdsville Airport, 209.5 nm (388.0 km) E. Retrieved 2019/03/26 05:00 UTC (41 minutes ago):

YBDV 260500Z AUTO 16019KT //// // ////// 24/19 Q1013

TAF (pilot weather forecast)

Forecast is more than 12 hours old.

Closest forecast is Alice Springs Airport, 180.0 nm (333.3 km) NNW. Retrieved 2019/03/25 00:00 UTC (1 day ago):

TAF YBAS 252317Z 2600/2624 14018G28KT CAVOK FM260900 14010KT CAVOK FM262300 14014KT CAVOK